sensor_id;sensor_type;location;lat;lon;timestamp;temperature;humidity
40738;DHT22;54759;48.094;-1.628;2023-04-25T00:01:49;21.30;43.10
40738;DHT22;54759;48.094;-1.628;2023-04-25T00:04:52;21.30;43.10
40738;DHT22;54759;48.094;-1.628;2023-04-25T00:07:54;21.60;43.20
40738;DHT22;54759;48.094;-1.628;2023-04-25T00:10:56;21.40;43.00
40738;DHT22;54759;48.094;-1.628;2023-04-25T00:13:58;21.50;43.00
40738;DHT22;54759;48.094;-1.628;2023-04-25T00:17:02;21.50;43.00
40738;DHT22;54759;48.094;-1.628;2023-04-25T00:20:06;21.20;42.80
40738;DHT22;54759;48.094;-1.628;2023-04-25T00:23:10;21.30;42.90
40738;DHT22;54759;48.094;-1.628;2023-04-25T00:26:12;21.40;43.10
40738;DHT22;54759;48.094;-1.628;2023-04-25T00:29:14;21.10;43.20
40738;DHT22;54759;48.094;-1.628;2023-04-25T00:32:15;21.20;43.10
40738;DHT22;54759;48.094;-1.628;2023-04-25T00:35:17;21.40;43.10
40738;DHT22;54759;48.094;-1.628;2023-04-25T00:38:19;21.20;43.00
40738;DHT22;54759;48.094;-1.628;2023-04-25T00:41:21;21.40;43.10
40738;DHT22;54759;48.094;-1.628;2023-04-25T00:44:24;21.50;43.30
40738;DHT22;54759;48.094;-1.628;2023-04-25T00:47:25;21.40;43.10
40738;DHT22;54759;48.094;-1.628;2023-04-25T00:50:27;21.10;42.90
40738;DHT22;54759;48.094;-1.628;2023-04-25T00:53:30;21.30;43.00
40738;DHT22;54759;48.094;-1.628;2023-04-25T00:56:33;21.20;42.80
40738;DHT22;54759;48.094;-1.628;2023-04-25T00:59:36;21.10;42.90
40738;DHT22;54759;48.094;-1.628;2023-04-25T01:02:38;21.10;42.70
40738;DHT22;54759;48.094;-1.628;2023-04-25T01:05:41;21.00;42.70
40738;DHT22;54759;48.094;-1.628;2023-04-25T01:08:43;21.10;42.80
40738;DHT22;54759;48.094;-1.628;2023-04-25T01:11:45;21.30;43.00
40738;DHT22;54759;48.094;-1.628;2023-04-25T01:14:47;21.40;43.00
40738;DHT22;54759;48.094;-1.628;2023-04-25T01:17:48;21.40;43.00
40738;DHT22;54759;48.094;-1.628;2023-04-25T01:20:51;21.40;42.80
40738;DHT22;54759;48.094;-1.628;2023-04-25T01:23:54;21.40;42.80
40738;DHT22;54759;48.094;-1.628;2023-04-25T01:27:00;21.20;42.90
40738;DHT22;54759;48.094;-1.628;2023-04-25T01:30:04;21.30;42.70
40738;DHT22;54759;48.094;-1.628;2023-04-25T01:33:07;21.50;42.80
40738;DHT22;54759;48.094;-1.628;2023-04-25T01:36:09;21.40;42.80
40738;DHT22;54759;48.094;-1.628;2023-04-25T01:39:14;21.10;42.60
40738;DHT22;54759;48.094;-1.628;2023-04-25T01:42:16;21.40;42.70
40738;DHT22;54759;48.094;-1.628;2023-04-25T01:45:18;21.30;42.70
40738;DHT22;54759;48.094;-1.628;2023-04-25T01:48:19;21.30;42.70
40738;DHT22;54759;48.094;-1.628;2023-04-25T01:51:21;21.00;42.50
40738;DHT22;54759;48.094;-1.628;2023-04-25T01:54:24;21.30;42.80
40738;DHT22;54759;48.094;-1.628;2023-04-25T01:57:25;21.40;42.80
40738;DHT22;54759;48.094;-1.628;2023-04-25T02:00:28;21.30;42.70
40738;DHT22;54759;48.094;-1.628;2023-04-25T02:03:29;21.30;42.70
40738;DHT22;54759;48.094;-1.628;2023-04-25T02:06:32;21.30;42.90
40738;DHT22;54759;48.094;-1.628;2023-04-25T02:09:34;21.20;42.80
40738;DHT22;54759;48.094;-1.628;2023-04-25T02:12:40;21.10;42.90
40738;DHT22;54759;48.094;-1.628;2023-04-25T02:16:02;21.20;42.70
40738;DHT22;54759;48.094;-1.628;2023-04-25T02:19:04;21.30;42.70
40738;DHT22;54759;48.094;-1.628;2023-04-25T02:22:06;21.20;42.50
40738;DHT22;54759;48.094;-1.628;2023-04-25T02:25:09;21.30;42.70
40738;DHT22;54759;48.094;-1.628;2023-04-25T02:28:11;20.80;42.60
40738;DHT22;54759;48.094;-1.628;2023-04-25T02:31:15;20.90;42.40
40738;DHT22;54759;48.094;-1.628;2023-04-25T02:34:19;21.20;42.50
40738;DHT22;54759;48.094;-1.628;2023-04-25T02:37:20;21.00;42.40
40738;DHT22;54759;48.094;-1.628;2023-04-25T02:40:22;21.30;42.60
40738;DHT22;54759;48.094;-1.628;2023-04-25T02:43:24;21.20;42.80
40738;DHT22;54759;48.094;-1.628;2023-04-25T02:46:27;21.00;42.40
40738;DHT22;54759;48.094;-1.628;2023-04-25T02:49:40;21.10;42.50
40738;DHT22;54759;48.094;-1.628;2023-04-25T02:52:41;21.10;42.40
40738;DHT22;54759;48.094;-1.628;2023-04-25T02:55:49;21.00;42.70
40738;DHT22;54759;48.094;-1.628;2023-04-25T02:58:50;21.20;42.50
40738;DHT22;54759;48.094;-1.628;2023-04-25T03:01:55;20.90;42.40
40738;DHT22;54759;48.094;-1.628;2023-04-25T03:04:59;20.90;41.50
40738;DHT22;54759;48.094;-1.628;2023-04-25T03:08:02;21.10;42.60
40738;DHT22;54759;48.094;-1.628;2023-04-25T03:11:06;20.90;42.40
40738;DHT22;54759;48.094;-1.628;2023-04-25T03:14:09;21.20;42.50
40738;DHT22;54759;48.094;-1.628;2023-04-25T03:17:11;20.90;42.20
40738;DHT22;54759;48.094;-1.628;2023-04-25T03:20:12;20.80;42.30
40738;DHT22;54759;48.094;-1.628;2023-04-25T03:23:14;21.10;42.40
40738;DHT22;54759;48.094;-1.628;2023-04-25T03:26:17;21.00;42.30
40738;DHT22;54759;48.094;-1.628;2023-04-25T03:29:21;21.10;42.40
40738;DHT22;54759;48.094;-1.628;2023-04-25T03:32:27;21.20;42.40
40738;DHT22;54759;48.094;-1.628;2023-04-25T03:35:28;21.00;42.30
40738;DHT22;54759;48.094;-1.628;2023-04-25T03:38:30;21.20;42.50
40738;DHT22;54759;48.094;-1.628;2023-04-25T03:41:33;21.10;42.70
40738;DHT22;54759;48.094;-1.628;2023-04-25T03:44:39;21.00;42.40
40738;DHT22;54759;48.094;-1.628;2023-04-25T03:47:41;21.10;42.30
40738;DHT22;54759;48.094;-1.628;2023-04-25T03:50:42;20.90;42.20
40738;DHT22;54759;48.094;-1.628;2023-04-25T03:53:44;21.00;42.50
40738;DHT22;54759;48.094;-1.628;2023-04-25T03:57:01;20.60;42.40
40738;DHT22;54759;48.094;-1.628;2023-04-25T04:00:07;21.10;42.40
40738;DHT22;54759;48.094;-1.628;2023-04-25T04:03:13;21.00;42.10
40738;DHT22;54759;48.094;-1.628;2023-04-25T04:06:26;20.80;42.00
40738;DHT22;54759;48.094;-1.628;2023-04-25T04:09:36;20.90;42.10
40738;DHT22;54759;48.094;-1.628;2023-04-25T04:12:42;20.90;42.10
40738;DHT22;54759;48.094;-1.628;2023-04-25T04:15:48;21.00;42.10
40738;DHT22;54759;48.094;-1.628;2023-04-25T04:18:51;21.00;42.00
40738;DHT22;54759;48.094;-1.628;2023-04-25T04:21:53;20.80;42.00
40738;DHT22;54759;48.094;-1.628;2023-04-25T04:24:55;21.00;42.10
40738;DHT22;54759;48.094;-1.628;2023-04-25T04:28:11;20.70;41.80
40738;DHT22;54759;48.094;-1.628;2023-04-25T04:31:25;20.80;42.00
40738;DHT22;54759;48.094;-1.628;2023-04-25T04:34:27;21.30;42.20
40738;DHT22;54759;48.094;-1.628;2023-04-25T04:37:29;21.20;42.30
40738;DHT22;54759;48.094;-1.628;2023-04-25T04:40:33;20.80;42.10
40738;DHT22;54759;48.094;-1.628;2023-04-25T04:48:51;21.00;41.20
40738;DHT22;54759;48.094;-1.628;2023-04-25T04:52:14;21.10;42.40
40738;DHT22;54759;48.094;-1.628;2023-04-25T04:55:29;21.00;42.40
40738;DHT22;54759;48.094;-1.628;2023-04-25T04:58:43;20.70;42.40
40738;DHT22;54759;48.094;-1.628;2023-04-25T05:02:01;20.90;42.50
40738;DHT22;54759;48.094;-1.628;2023-04-25T05:05:22;21.00;41.80
40738;DHT22;54759;48.094;-1.628;2023-04-25T05:08:33;21.00;42.70
40738;DHT22;54759;48.094;-1.628;2023-04-25T05:11:51;21.00;42.70
40738;DHT22;54759;48.094;-1.628;2023-04-25T05:15:03;20.80;42.60
40738;DHT22;54759;48.094;-1.628;2023-04-25T05:18:27;20.60;42.60
40738;DHT22;54759;48.094;-1.628;2023-04-25T05:21:42;20.90;41.60
40738;DHT22;54759;48.094;-1.628;2023-04-25T05:29:33;20.90;41.60
40738;DHT22;54759;48.094;-1.628;2023-04-25T05:32:52;20.80;42.90
40738;DHT22;54759;48.094;-1.628;2023-04-25T05:35:53;20.80;42.90
40738;DHT22;54759;48.094;-1.628;2023-04-25T05:38:59;21.10;43.00
40738;DHT22;54759;48.094;-1.628;2023-04-25T05:42:23;20.70;42.90
40738;DHT22;54759;48.094;-1.628;2023-04-25T05:45:40;21.00;41.80
40738;DHT22;54759;48.094;-1.628;2023-04-25T05:48:55;20.60;42.90
40738;DHT22;54759;48.094;-1.628;2023-04-25T05:52:11;21.00;43.00
40738;DHT22;54759;48.094;-1.628;2023-04-25T05:55:21;20.70;43.00
40738;DHT22;54759;48.094;-1.628;2023-04-25T05:58:23;20.90;43.00
40738;DHT22;54759;48.094;-1.628;2023-04-25T06:01:26;20.70;43.40
40738;DHT22;54759;48.094;-1.628;2023-04-25T06:04:28;20.70;43.00
40738;DHT22;54759;48.094;-1.628;2023-04-25T06:07:30;20.90;43.90
40738;DHT22;54759;48.094;-1.628;2023-04-25T06:10:32;20.90;43.10
40738;DHT22;54759;48.094;-1.628;2023-04-25T06:13:33;21.20;43.50
40738;DHT22;54759;48.094;-1.628;2023-04-25T06:16:35;20.90;43.40
40738;DHT22;54759;48.094;-1.628;2023-04-25T06:19:36;20.90;43.40
40738;DHT22;54759;48.094;-1.628;2023-04-25T06:22:38;20.70;43.60
40738;DHT22;54759;48.094;-1.628;2023-04-25T06:25:40;21.00;43.90
40738;DHT22;54759;48.094;-1.628;2023-04-25T06:28:42;20.70;43.20
40738;DHT22;54759;48.094;-1.628;2023-04-25T06:31:44;21.00;43.70
40738;DHT22;54759;48.094;-1.628;2023-04-25T06:34:46;20.60;43.50
40738;DHT22;54759;48.094;-1.628;2023-04-25T06:37:48;21.00;43.80
40738;DHT22;54759;48.094;-1.628;2023-04-25T06:40:53;20.60;43.60
40738;DHT22;54759;48.094;-1.628;2023-04-25T06:43:56;21.00;43.90
40738;DHT22;54759;48.094;-1.628;2023-04-25T06:47:04;20.80;43.70
40738;DHT22;54759;48.094;-1.628;2023-04-25T06:50:06;21.10;44.00
40738;DHT22;54759;48.094;-1.628;2023-04-25T06:53:09;21.10;44.00
40738;DHT22;54759;48.094;-1.628;2023-04-25T06:56:14;21.00;43.90
40738;DHT22;54759;48.094;-1.628;2023-04-25T06:59:26;21.10;44.10
40738;DHT22;54759;48.094;-1.628;2023-04-25T07:02:28;20.80;44.20
40738;DHT22;54759;48.094;-1.628;2023-04-25T07:05:30;21.10;44.90
40738;DHT22;54759;48.094;-1.628;2023-04-25T07:08:35;20.90;45.30
40738;DHT22;54759;48.094;-1.628;2023-04-25T07:11:37;21.20;45.30
40738;DHT22;54759;48.094;-1.628;2023-04-25T07:14:39;20.60;45.30
40738;DHT22;54759;48.094;-1.628;2023-04-25T07:17:41;20.80;45.10
40738;DHT22;54759;48.094;-1.628;2023-04-25T07:20:42;21.30;45.70
40738;DHT22;54759;48.094;-1.628;2023-04-25T07:23:46;21.30;45.60
40738;DHT22;54759;48.094;-1.628;2023-04-25T07:26:53;21.00;45.50
40738;DHT22;54759;48.094;-1.628;2023-04-25T07:30:02;21.20;44.70
40738;DHT22;54759;48.094;-1.628;2023-04-25T07:33:04;21.30;45.10
40738;DHT22;54759;48.094;-1.628;2023-04-25T07:36:08;21.00;45.00
40738;DHT22;54759;48.094;-1.628;2023-04-25T07:39:09;21.30;45.40
40738;DHT22;54759;48.094;-1.628;2023-04-25T07:42:13;21.20;45.30
40738;DHT22;54759;48.094;-1.628;2023-04-25T07:45:17;21.20;45.40
40738;DHT22;54759;48.094;-1.628;2023-04-25T07:48:27;21.40;45.80
40738;DHT22;54759;48.094;-1.628;2023-04-25T07:51:30;21.40;46.10
40738;DHT22;54759;48.094;-1.628;2023-04-25T07:54:38;21.40;45.60
40738;DHT22;54759;48.094;-1.628;2023-04-25T07:57:49;21.30;46.10
40738;DHT22;54759;48.094;-1.628;2023-04-25T08:00:51;21.60;46.10
40738;DHT22;54759;48.094;-1.628;2023-04-25T08:04:11;21.50;46.00
40738;DHT22;54759;48.094;-1.628;2023-04-25T08:07:31;21.30;45.70
40738;DHT22;54759;48.094;-1.628;2023-04-25T08:10:37;21.30;45.70
40738;DHT22;54759;48.094;-1.628;2023-04-25T08:13:43;21.40;45.50
40738;DHT22;54759;48.094;-1.628;2023-04-25T08:16:44;21.70;45.60
40738;DHT22;54759;48.094;-1.628;2023-04-25T08:19:47;21.50;45.50
40738;DHT22;54759;48.094;-1.628;2023-04-25T08:22:58;21.50;45.50
40738;DHT22;54759;48.094;-1.628;2023-04-25T08:26:10;21.70;45.70
40738;DHT22;54759;48.094;-1.628;2023-04-25T08:29:22;21.50;45.50
40738;DHT22;54759;48.094;-1.628;2023-04-25T08:32:27;21.50;45.30
40738;DHT22;54759;48.094;-1.628;2023-04-25T08:35:47;21.50;45.40
40738;DHT22;54759;48.094;-1.628;2023-04-25T08:38:50;21.80;45.50
40738;DHT22;54759;48.094;-1.628;2023-04-25T08:41:55;21.80;45.50
40738;DHT22;54759;48.094;-1.628;2023-04-25T08:45:01;21.80;45.90
40738;DHT22;54759;48.094;-1.628;2023-04-25T08:48:11;21.90;45.40
40738;DHT22;54759;48.094;-1.628;2023-04-25T08:51:22;21.90;45.40
40738;DHT22;54759;48.094;-1.628;2023-04-25T08:54:24;21.60;45.30
40738;DHT22;54759;48.094;-1.628;2023-04-25T08:57:37;21.80;45.60
40738;DHT22;54759;48.094;-1.628;2023-04-25T09:00:39;21.90;45.40
40738;DHT22;54759;48.094;-1.628;2023-04-25T09:03:42;21.70;45.40
40738;DHT22;54759;48.094;-1.628;2023-04-25T09:06:44;21.60;45.30
40738;DHT22;54759;48.094;-1.628;2023-04-25T09:09:46;19.90;44.50
40738;DHT22;54759;48.094;-1.628;2023-04-25T09:13:02;21.70;45.40
40738;DHT22;54759;48.094;-1.628;2023-04-25T09:16:06;21.70;45.20
40738;DHT22;54759;48.094;-1.628;2023-04-25T09:19:21;21.90;44.90
40738;DHT22;54759;48.094;-1.628;2023-04-25T09:22:41;21.80;45.20
40738;DHT22;54759;48.094;-1.628;2023-04-25T09:25:43;21.70;45.20
40738;DHT22;54759;48.094;-1.628;2023-04-25T09:28:47;21.80;45.10
40738;DHT22;54759;48.094;-1.628;2023-04-25T09:31:52;22.00;45.20
40738;DHT22;54759;48.094;-1.628;2023-04-25T09:34:55;21.80;45.00
40738;DHT22;54759;48.094;-1.628;2023-04-25T09:38:06;21.70;44.90
40738;DHT22;54759;48.094;-1.628;2023-04-25T09:41:23;21.80;44.80
40738;DHT22;54759;48.094;-1.628;2023-04-25T09:44:25;22.00;44.90
40738;DHT22;54759;48.094;-1.628;2023-04-25T09:47:30;21.60;44.80
40738;DHT22;54759;48.094;-1.628;2023-04-25T09:50:32;22.10;45.00
40738;DHT22;54759;48.094;-1.628;2023-04-25T09:53:44;22.10;45.00
40738;DHT22;54759;48.094;-1.628;2023-04-25T09:56:54;22.00;44.70
40738;DHT22;54759;48.094;-1.628;2023-04-25T09:59:55;21.60;44.60
40738;DHT22;54759;48.094;-1.628;2023-04-25T10:03:05;21.90;44.70
40738;DHT22;54759;48.094;-1.628;2023-04-25T10:06:26;21.60;44.50
40738;DHT22;54759;48.094;-1.628;2023-04-25T10:09:29;22.10;44.70
40738;DHT22;54759;48.094;-1.628;2023-04-25T10:12:35;22.20;44.70
40738;DHT22;54759;48.094;-1.628;2023-04-25T10:15:37;22.20;44.70
40738;DHT22;54759;48.094;-1.628;2023-04-25T10:18:41;22.20;44.50
40738;DHT22;54759;48.094;-1.628;2023-04-25T10:21:48;21.90;44.50
40738;DHT22;54759;48.094;-1.628;2023-04-25T10:24:51;22.10;44.40
40738;DHT22;54759;48.094;-1.628;2023-04-25T10:27:53;22.00;44.40
40738;DHT22;54759;48.094;-1.628;2023-04-25T10:30:59;22.20;44.40
40738;DHT22;54759;48.094;-1.628;2023-04-25T10:34:02;22.40;44.40
40738;DHT22;54759;48.094;-1.628;2023-04-25T10:37:03;22.10;44.10
40738;DHT22;54759;48.094;-1.628;2023-04-25T10:40:09;22.30;44.20
40738;DHT22;54759;48.094;-1.628;2023-04-25T10:46:38;22.00;43.70
40738;DHT22;54759;48.094;-1.628;2023-04-25T10:49:42;22.10;43.70
40738;DHT22;54759;48.094;-1.628;2023-04-25T10:52:44;22.10;43.60
40738;DHT22;54759;48.094;-1.628;2023-04-25T10:55:49;21.90;43.40
40738;DHT22;54759;48.094;-1.628;2023-04-25T10:58:52;22.30;43.40
40738;DHT22;54759;48.094;-1.628;2023-04-25T11:02:11;22.20;43.40
40738;DHT22;54759;48.094;-1.628;2023-04-25T11:05:30;22.40;43.30
40738;DHT22;54759;48.094;-1.628;2023-04-25T11:08:48;20.50;42.10
40738;DHT22;54759;48.094;-1.628;2023-04-25T11:11:54;22.00;42.90
40738;DHT22;54759;48.094;-1.628;2023-04-25T11:15:00;22.30;42.90
40738;DHT22;54759;48.094;-1.628;2023-04-25T11:18:02;22.30;42.80
40738;DHT22;54759;48.094;-1.628;2023-04-25T11:21:06;22.40;42.80
40738;DHT22;54759;48.094;-1.628;2023-04-25T11:24:07;21.70;42.40
40738;DHT22;54759;48.094;-1.628;2023-04-25T11:27:08;22.20;42.50
40738;DHT22;54759;48.094;-1.628;2023-04-25T11:30:11;22.50;42.90
40738;DHT22;54759;48.094;-1.628;2023-04-25T11:33:13;22.10;42.40
40738;DHT22;54759;48.094;-1.628;2023-04-25T11:36:16;22.50;42.70
40738;DHT22;54759;48.094;-1.628;2023-04-25T11:39:18;22.20;42.40
40738;DHT22;54759;48.094;-1.628;2023-04-25T11:42:19;22.20;42.30
40738;DHT22;54759;48.094;-1.628;2023-04-25T11:45:22;22.40;42.30
40738;DHT22;54759;48.094;-1.628;2023-04-25T11:48:27;22.50;42.40
40738;DHT22;54759;48.094;-1.628;2023-04-25T11:51:29;22.40;42.30
40738;DHT22;54759;48.094;-1.628;2023-04-25T11:54:35;22.20;42.10
40738;DHT22;54759;48.094;-1.628;2023-04-25T11:57:38;22.40;42.10
40738;DHT22;54759;48.094;-1.628;2023-04-25T12:00:41;22.30;42.00
40738;DHT22;54759;48.094;-1.628;2023-04-25T12:03:51;22.30;42.00
40738;DHT22;54759;48.094;-1.628;2023-04-25T12:06:54;22.60;42.40
40738;DHT22;54759;48.094;-1.628;2023-04-25T12:09:59;22.80;42.10
40738;DHT22;54759;48.094;-1.628;2023-04-25T12:13:17;22.80;41.90
40738;DHT22;54759;48.094;-1.628;2023-04-25T12:16:22;22.40;41.40
40738;DHT22;54759;48.094;-1.628;2023-04-25T12:19:32;22.40;41.40
40738;DHT22;54759;48.094;-1.628;2023-04-25T12:22:35;22.40;41.20
40738;DHT22;54759;48.094;-1.628;2023-04-25T12:25:38;22.50;41.20
40738;DHT22;54759;48.094;-1.628;2023-04-25T12:28:45;22.50;41.00
40738;DHT22;54759;48.094;-1.628;2023-04-25T12:31:49;22.50;40.80
40738;DHT22;54759;48.094;-1.628;2023-04-25T12:34:54;22.50;40.70
40738;DHT22;54759;48.094;-1.628;2023-04-25T12:37:56;22.40;40.70
40738;DHT22;54759;48.094;-1.628;2023-04-25T12:40:58;22.50;40.70
40738;DHT22;54759;48.094;-1.628;2023-04-25T12:44:00;22.60;40.70
40738;DHT22;54759;48.094;-1.628;2023-04-25T12:47:01;22.60;40.60
40738;DHT22;54759;48.094;-1.628;2023-04-25T12:50:04;22.60;40.60
40738;DHT22;54759;48.094;-1.628;2023-04-25T12:53:06;22.50;41.00
40738;DHT22;54759;48.094;-1.628;2023-04-25T12:56:08;22.50;40.50
40738;DHT22;54759;48.094;-1.628;2023-04-25T12:59:09;22.70;40.50
40738;DHT22;54759;48.094;-1.628;2023-04-25T13:02:11;22.50;40.40
40738;DHT22;54759;48.094;-1.628;2023-04-25T13:05:13;21.70;40.00
40738;DHT22;54759;48.094;-1.628;2023-04-25T13:08:15;22.70;40.30
40738;DHT22;54759;48.094;-1.628;2023-04-25T13:11:17;22.60;40.20
40738;DHT22;54759;48.094;-1.628;2023-04-25T13:14:18;22.70;40.20
40738;DHT22;54759;48.094;-1.628;2023-04-25T13:17:20;22.80;40.10
40738;DHT22;54759;48.094;-1.628;2023-04-25T13:20:21;22.80;40.00
40738;DHT22;54759;48.094;-1.628;2023-04-25T13:23:26;22.60;39.90
40738;DHT22;54759;48.094;-1.628;2023-04-25T13:26:29;22.80;40.10
40738;DHT22;54759;48.094;-1.628;2023-04-25T13:29:31;22.70;40.00
40738;DHT22;54759;48.094;-1.628;2023-04-25T13:32:35;22.50;39.70
40738;DHT22;54759;48.094;-1.628;2023-04-25T13:35:38;22.80;39.80
40738;DHT22;54759;48.094;-1.628;2023-04-25T13:38:40;22.70;39.70
40738;DHT22;54759;48.094;-1.628;2023-04-25T13:41:44;22.90;39.70
40738;DHT22;54759;48.094;-1.628;2023-04-25T13:44:46;22.90;39.60
40738;DHT22;54759;48.094;-1.628;2023-04-25T13:47:48;22.90;39.60
40738;DHT22;54759;48.094;-1.628;2023-04-25T13:50:50;22.70;39.50
40738;DHT22;54759;48.094;-1.628;2023-04-25T13:53:52;22.90;39.70
40738;DHT22;54759;48.094;-1.628;2023-04-25T13:56:54;23.00;39.70
40738;DHT22;54759;48.094;-1.628;2023-04-25T14:00:04;22.60;39.50
40738;DHT22;54759;48.094;-1.628;2023-04-25T14:03:09;22.90;39.50
40738;DHT22;54759;48.094;-1.628;2023-04-25T14:06:11;23.00;39.50
40738;DHT22;54759;48.094;-1.628;2023-04-25T14:09:14;22.90;39.40
40738;DHT22;54759;48.094;-1.628;2023-04-25T14:12:16;22.90;39.30
40738;DHT22;54759;48.094;-1.628;2023-04-25T14:15:21;22.90;39.20
40738;DHT22;54759;48.094;-1.628;2023-04-25T14:18:22;23.00;39.20
40738;DHT22;54759;48.094;-1.628;2023-04-25T14:21:24;23.00;39.20
40738;DHT22;54759;48.094;-1.628;2023-04-25T14:24:27;22.90;39.10
40738;DHT22;54759;48.094;-1.628;2023-04-25T14:27:28;23.10;39.00
40738;DHT22;54759;48.094;-1.628;2023-04-25T14:30:30;23.00;38.90
40738;DHT22;54759;48.094;-1.628;2023-04-25T14:33:32;23.00;38.90
40738;DHT22;54759;48.094;-1.628;2023-04-25T14:36:35;23.00;38.90
40738;DHT22;54759;48.094;-1.628;2023-04-25T14:39:37;23.10;38.70
40738;DHT22;54759;48.094;-1.628;2023-04-25T14:42:39;23.10;38.70
40738;DHT22;54759;48.094;-1.628;2023-04-25T14:45:41;23.20;38.60
40738;DHT22;54759;48.094;-1.628;2023-04-25T14:48:42;23.00;38.40
40738;DHT22;54759;48.094;-1.628;2023-04-25T14:51:44;23.20;38.50
40738;DHT22;54759;48.094;-1.628;2023-04-25T14:54:46;23.20;38.50
40738;DHT22;54759;48.094;-1.628;2023-04-25T14:57:48;23.20;38.60
40738;DHT22;54759;48.094;-1.628;2023-04-25T15:00:49;23.30;38.50
40738;DHT22;54759;48.094;-1.628;2023-04-25T15:03:52;23.20;38.50
40738;DHT22;54759;48.094;-1.628;2023-04-25T15:06:54;23.30;38.40
40738;DHT22;54759;48.094;-1.628;2023-04-25T15:09:57;23.30;39.00
40738;DHT22;54759;48.094;-1.628;2023-04-25T15:12:59;23.20;38.30
40738;DHT22;54759;48.094;-1.628;2023-04-25T15:16:02;23.00;38.20
40738;DHT22;54759;48.094;-1.628;2023-04-25T15:19:03;23.30;38.20
40738;DHT22;54759;48.094;-1.628;2023-04-25T15:22:05;23.40;38.20
40738;DHT22;54759;48.094;-1.628;2023-04-25T15:25:13;23.30;38.00
40738;DHT22;54759;48.094;-1.628;2023-04-25T15:28:16;23.40;37.90
40738;DHT22;54759;48.094;-1.628;2023-04-25T15:31:20;23.30;37.80
40738;DHT22;54759;48.094;-1.628;2023-04-25T15:34:22;23.40;37.80
40738;DHT22;54759;48.094;-1.628;2023-04-25T15:37:23;23.30;37.80
40738;DHT22;54759;48.094;-1.628;2023-04-25T15:40:25;23.40;37.80
40738;DHT22;54759;48.094;-1.628;2023-04-25T15:43:27;23.40;37.70
40738;DHT22;54759;48.094;-1.628;2023-04-25T15:46:30;23.30;37.60
40738;DHT22;54759;48.094;-1.628;2023-04-25T15:49:32;23.40;37.50
40738;DHT22;54759;48.094;-1.628;2023-04-25T15:52:33;23.50;37.60
40738;DHT22;54759;48.094;-1.628;2023-04-25T15:55:36;23.40;37.50
40738;DHT22;54759;48.094;-1.628;2023-04-25T15:58:39;23.40;37.40
40738;DHT22;54759;48.094;-1.628;2023-04-25T16:01:40;23.50;37.50
40738;DHT22;54759;48.094;-1.628;2023-04-25T16:04:43;23.40;37.50
40738;DHT22;54759;48.094;-1.628;2023-04-25T16:07:45;23.40;37.50
40738;DHT22;54759;48.094;-1.628;2023-04-25T16:10:48;23.50;37.50
40738;DHT22;54759;48.094;-1.628;2023-04-25T16:13:50;23.50;37.40
40738;DHT22;54759;48.094;-1.628;2023-04-25T16:16:52;23.50;37.40
40738;DHT22;54759;48.094;-1.628;2023-04-25T16:19:54;23.40;37.20
40738;DHT22;54759;48.094;-1.628;2023-04-25T16:22:55;23.40;37.50
40738;DHT22;54759;48.094;-1.628;2023-04-25T16:25:58;23.60;37.20
40738;DHT22;54759;48.094;-1.628;2023-04-25T16:29:02;23.40;37.10
40738;DHT22;54759;48.094;-1.628;2023-04-25T16:32:04;23.60;37.10
40738;DHT22;54759;48.094;-1.628;2023-04-25T16:35:06;23.50;37.10
40738;DHT22;54759;48.094;-1.628;2023-04-25T16:38:09;23.50;37.00
40738;DHT22;54759;48.094;-1.628;2023-04-25T16:41:11;23.50;37.00
40738;DHT22;54759;48.094;-1.628;2023-04-25T16:44:13;23.60;37.10
40738;DHT22;54759;48.094;-1.628;2023-04-25T16:47:15;23.40;37.00
40738;DHT22;54759;48.094;-1.628;2023-04-25T16:50:20;23.60;37.10
40738;DHT22;54759;48.094;-1.628;2023-04-25T16:53:22;23.60;37.00
40738;DHT22;54759;48.094;-1.628;2023-04-25T16:56:24;23.50;37.00
40738;DHT22;54759;48.094;-1.628;2023-04-25T16:59:26;23.50;36.90
40738;DHT22;54759;48.094;-1.628;2023-04-25T17:02:30;23.50;36.90
40738;DHT22;54759;48.094;-1.628;2023-04-25T17:05:32;23.50;36.90
40738;DHT22;54759;48.094;-1.628;2023-04-25T17:08:37;23.40;36.90
40738;DHT22;54759;48.094;-1.628;2023-04-25T17:11:40;23.60;37.00
40738;DHT22;54759;48.094;-1.628;2023-04-25T17:14:44;23.40;36.80
40738;DHT22;54759;48.094;-1.628;2023-04-25T17:17:46;23.60;36.90
40738;DHT22;54759;48.094;-1.628;2023-04-25T17:20:48;23.50;36.80
40738;DHT22;54759;48.094;-1.628;2023-04-25T17:23:49;23.50;36.80
40738;DHT22;54759;48.094;-1.628;2023-04-25T17:26:51;23.40;36.80
40738;DHT22;54759;48.094;-1.628;2023-04-25T17:29:53;23.50;36.80
40738;DHT22;54759;48.094;-1.628;2023-04-25T17:32:54;23.40;36.70
40738;DHT22;54759;48.094;-1.628;2023-04-25T17:35:59;23.40;36.70
40738;DHT22;54759;48.094;-1.628;2023-04-25T17:39:00;23.50;36.70
40738;DHT22;54759;48.094;-1.628;2023-04-25T17:42:02;23.50;36.70
40738;DHT22;54759;48.094;-1.628;2023-04-25T17:45:07;23.40;36.60
40738;DHT22;54759;48.094;-1.628;2023-04-25T17:48:09;23.50;36.60
40738;DHT22;54759;48.094;-1.628;2023-04-25T17:51:11;23.80;36.80
40738;DHT22;54759;48.094;-1.628;2023-04-25T17:54:15;23.40;36.60
40738;DHT22;54759;48.094;-1.628;2023-04-25T17:57:18;23.30;36.50
40738;DHT22;54759;48.094;-1.628;2023-04-25T18:00:21;23.50;36.60
40738;DHT22;54759;48.094;-1.628;2023-04-25T18:03:23;23.40;36.60
40738;DHT22;54759;48.094;-1.628;2023-04-25T18:06:26;23.50;36.60
40738;DHT22;54759;48.094;-1.628;2023-04-25T18:09:28;23.50;36.60
40738;DHT22;54759;48.094;-1.628;2023-04-25T18:12:32;23.40;36.60
40738;DHT22;54759;48.094;-1.628;2023-04-25T18:15:34;23.50;36.70
40738;DHT22;54759;48.094;-1.628;2023-04-25T18:18:36;23.20;36.60
40738;DHT22;54759;48.094;-1.628;2023-04-25T18:21:38;23.30;36.60
40738;DHT22;54759;48.094;-1.628;2023-04-25T18:24:40;23.30;36.60
40738;DHT22;54759;48.094;-1.628;2023-04-25T18:27:45;23.20;36.60
40738;DHT22;54759;48.094;-1.628;2023-04-25T18:30:46;23.40;36.70
40738;DHT22;54759;48.094;-1.628;2023-04-25T18:33:50;23.30;36.60
40738;DHT22;54759;48.094;-1.628;2023-04-25T18:36:52;23.10;36.60
40738;DHT22;54759;48.094;-1.628;2023-04-25T18:39:55;23.20;36.70
40738;DHT22;54759;48.094;-1.628;2023-04-25T18:42:57;23.40;36.80
40738;DHT22;54759;48.094;-1.628;2023-04-25T18:45:59;23.40;36.90
40738;DHT22;54759;48.094;-1.628;2023-04-25T18:49:01;23.40;36.90
40738;DHT22;54759;48.094;-1.628;2023-04-25T18:52:02;23.30;36.90
40738;DHT22;54759;48.094;-1.628;2023-04-25T18:55:05;23.30;37.00
40738;DHT22;54759;48.094;-1.628;2023-04-25T18:58:08;23.40;37.10
40738;DHT22;54759;48.094;-1.628;2023-04-25T19:01:09;23.30;37.20
40738;DHT22;54759;48.094;-1.628;2023-04-25T19:04:13;23.40;37.30
40738;DHT22;54759;48.094;-1.628;2023-04-25T19:07:18;23.30;37.20
40738;DHT22;54759;48.094;-1.628;2023-04-25T19:10:20;23.30;37.30
40738;DHT22;54759;48.094;-1.628;2023-04-25T19:13:22;23.10;37.30
40738;DHT22;54759;48.094;-1.628;2023-04-25T19:16:25;23.30;37.40
40738;DHT22;54759;48.094;-1.628;2023-04-25T19:19:27;23.20;37.40